createdAt,value
2023-01-31T08:14:08.739Z,13.63
2023-01-31T08:16:36.922Z,13.05
2023-01-31T08:19:04.582Z,13.95
2023-01-31T08:21:32.169Z,13.25
2023-01-31T08:23:59.590Z,11.57
2023-01-31T08:26:26.966Z,12.95
2023-01-31T08:28:54.453Z,15.20
2023-01-31T08:31:26.319Z,14.68
2023-01-31T08:33:55.837Z,13.93
2023-01-31T08:36:29.741Z,13.32
2023-01-31T08:38:57.712Z,15.25
2023-01-31T08:41:28.194Z,13.45
2023-01-31T08:43:58.995Z,14.10
2023-01-31T08:46:31.544Z,13.38
2023-01-31T08:49:02.279Z,12.95
2023-01-31T08:51:30.226Z,13.52
2023-01-31T08:53:58.184Z,12.93
2023-01-31T08:56:26.331Z,11.88
2023-01-31T08:58:55.014Z,11.02
2023-01-31T09:01:23.271Z,11.85
2023-01-31T09:03:56.294Z,9.73
2023-01-31T09:06:27.244Z,10.00
2023-01-31T09:08:58.222Z,10.30
2023-01-31T09:11:30.363Z,9.18
2023-01-31T09:13:58.359Z,8.32
2023-01-31T09:16:25.699Z,8.65
2023-01-31T09:18:54.055Z,8.55
2023-01-31T09:21:24.341Z,9.10
2023-01-31T09:24:00.185Z,8.23
2023-01-31T09:26:27.573Z,8.90
2023-01-31T09:28:56.146Z,9.70
2023-01-31T09:31:23.590Z,9.52
2023-01-31T09:33:51.071Z,10.32
2023-01-31T09:36:23.967Z,10.80
2023-01-31T09:38:58.173Z,9.43
2023-01-31T09:42:00.986Z,8.85
2023-01-31T09:44:44.198Z,10.77
2023-01-31T09:47:41.101Z,9.88
2023-01-31T09:50:43.451Z,9.57
2023-01-31T09:53:21.852Z,10.50
2023-01-31T09:56:39.871Z,11.25
2023-01-31T10:00:12.793Z,10.65
2023-01-31T10:03:21.488Z,11.75
2023-01-31T10:06:36.309Z,11.48
2023-01-31T10:09:38.297Z,12.05
2023-01-31T10:12:33.594Z,11.10
2023-01-31T10:15:32.958Z,11.35
2023-01-31T10:18:18.440Z,10.98
2023-01-31T10:21:57.586Z,11.07
2023-01-31T10:24:48.117Z,10.07
2023-01-31T10:27:53.074Z,11.32
2023-01-31T10:30:33.769Z,10.85
2023-01-31T10:35:44.069Z,10.75
2023-01-31T10:38:39.550Z,10.02
2023-01-31T10:41:22.882Z,9.32
2023-01-31T10:44:03.537Z,9.88
2023-01-31T10:48:58.570Z,9.82
2023-01-31T10:51:52.387Z,8.80
2023-01-31T10:55:26.739Z,9.20
2023-01-31T10:57:54.775Z,9.27
2023-01-31T11:00:32.993Z,8.68
2023-01-31T11:03:00.444Z,9.07
2023-01-31T11:05:30.493Z,9.43
2023-01-31T11:08:17.634Z,8.52
2023-01-31T11:10:57.136Z,8.60
2023-01-31T11:13:25.003Z,8.68
2023-01-31T11:15:55.550Z,8.15
2023-01-31T11:21:05.619Z,8.18
2023-01-31T11:23:36.037Z,8.15
2023-01-31T11:26:04.191Z,8.98
2023-01-31T11:28:41.272Z,8.40
2023-01-31T11:31:29.230Z,8.45
2023-01-31T11:34:04.967Z,8.73
2023-01-31T11:36:45.787Z,8.77
2023-01-31T11:39:37.975Z,8.43
2023-01-31T11:42:16.244Z,8.27
2023-01-31T11:45:16.210Z,7.90
2023-01-31T11:48:05.363Z,7.22
2023-01-31T11:51:01.194Z,8.02
2023-01-31T11:53:43.558Z,7.97
2023-01-31T11:56:22.972Z,7.00
2023-01-31T11:58:58.201Z,7.43
2023-01-31T12:01:26.623Z,7.38
2023-01-31T12:04:04.626Z,6.65
2023-01-31T12:06:34.346Z,7.15
2023-01-31T12:09:22.717Z,7.40
2023-01-31T12:12:00.660Z,6.75
2023-01-31T12:14:42.410Z,5.15
2023-01-31T12:17:16.807Z,4.43
2023-01-31T12:20:27.018Z,3.90
2023-01-31T12:23:46.421Z,3.85
2023-01-31T12:26:47.147Z,4.10
2023-01-31T12:29:58.846Z,4.28
2023-01-31T12:33:24.500Z,3.53
2023-01-31T12:36:22.298Z,4.20
2023-01-31T12:39:28.658Z,3.53
2023-01-31T12:42:34.643Z,3.92
2023-01-31T12:46:17.795Z,3.83
2023-01-31T12:49:40.765Z,3.58
2023-01-31T12:52:52.250Z,4.40
2023-01-31T12:56:24.720Z,3.80
2023-01-31T12:59:26.423Z,3.75
2023-01-31T13:03:03.851Z,3.90
2023-01-31T13:06:19.439Z,4.10
2023-01-31T13:09:10.940Z,3.80
2023-01-31T13:11:49.010Z,3.90
2023-01-31T13:14:23.092Z,3.58
2023-01-31T13:17:00.070Z,3.70
2023-01-31T13:19:54.788Z,3.50
2023-01-31T13:22:41.736Z,3.30
2023-01-31T13:25:46.857Z,3.88
2023-01-31T13:28:29.695Z,3.58
2023-01-31T13:31:08.477Z,3.30
2023-01-31T13:34:34.720Z,3.78
2023-01-31T13:37:21.016Z,3.10
2023-01-31T13:40:32.980Z,3.50
2023-01-31T13:43:13.876Z,2.97
2023-01-31T13:46:10.064Z,3.80
2023-01-31T13:48:55.518Z,3.30
2023-01-31T13:51:43.653Z,3.20
2023-01-31T13:54:39.126Z,3.42
2023-01-31T13:57:07.386Z,3.15
2023-01-31T13:59:40.540Z,3.22
2023-01-31T14:02:20.029Z,3.78
2023-01-31T14:04:48.014Z,3.50
2023-01-31T14:07:22.614Z,3.45
2023-01-31T14:09:49.733Z,3.47
2023-01-31T14:12:17.148Z,4.70
2023-01-31T14:14:57.185Z,3.80
2023-01-31T14:17:27.233Z,3.58
2023-01-31T14:19:56.976Z,3.53
2023-01-31T14:22:39.987Z,3.60
2023-01-31T14:25:10.095Z,3.22
2023-01-31T14:27:38.104Z,3.50
2023-01-31T14:30:08.518Z,3.90
2023-01-31T14:33:13.186Z,3.28
2023-01-31T14:37:09.634Z,3.45
2023-01-31T14:40:30.349Z,3.10
2023-01-31T14:43:41.288Z,3.65
2023-01-31T14:46:54.990Z,3.42
2023-01-31T14:50:05.655Z,3.28
2023-01-31T14:53:20.632Z,3.80
2023-01-31T14:56:25.991Z,3.53
2023-01-31T14:58:54.567Z,3.65
2023-01-31T15:01:31.242Z,3.50
2023-01-31T15:03:59.155Z,3.50
2023-01-31T15:06:40.458Z,3.47
2023-01-31T15:09:28.000Z,3.10
2023-01-31T15:11:58.839Z,3.28
2023-01-31T15:14:49.106Z,4.32
2023-01-31T15:17:38.420Z,3.63
2023-01-31T15:20:33.315Z,3.63
2023-01-31T15:23:09.085Z,3.47
2023-01-31T15:25:46.556Z,4.00
2023-01-31T15:28:26.347Z,3.40
2023-01-31T15:30:59.974Z,3.90
2023-01-31T15:33:37.925Z,4.32
2023-01-31T15:36:38.859Z,4.20
2023-01-31T15:39:46.499Z,3.42
2023-01-31T15:42:32.623Z,3.45
2023-01-31T15:45:26.451Z,3.60
2023-01-31T15:48:15.660Z,4.25
2023-01-31T15:50:58.404Z,3.78
2023-01-31T15:53:32.956Z,3.40
2023-01-31T15:56:03.420Z,3.22
2023-01-31T15:58:32.745Z,3.58
2023-01-31T16:01:02.676Z,3.88
2023-01-31T16:03:41.979Z,3.70
2023-01-31T16:06:37.832Z,3.50
2023-01-31T16:09:30.713Z,3.20
2023-01-31T16:12:02.637Z,3.63
2023-01-31T16:14:30.467Z,3.20
2023-01-31T16:16:59.250Z,2.83
2023-01-31T16:19:35.908Z,2.85
2023-01-31T16:22:03.948Z,2.90
2023-01-31T16:24:32.134Z,3.33
2023-01-31T16:27:14.979Z,3.20
2023-01-31T16:29:52.854Z,3.05
2023-01-31T16:32:31.021Z,6.43
2023-01-31T16:35:06.547Z,5.22
2023-01-31T16:37:43.568Z,3.17
2023-01-31T16:40:29.525Z,2.90
2023-01-31T16:43:31.327Z,3.78
2023-01-31T16:46:12.174Z,3.50
2023-01-31T16:48:41.974Z,2.92
2023-01-31T16:51:30.145Z,3.10
2023-01-31T16:54:33.043Z,3.67
2023-01-31T16:57:03.176Z,3.20
2023-01-31T16:59:39.109Z,3.33
2023-01-31T17:02:30.291Z,2.85
2023-01-31T17:05:30.395Z,2.85
2023-01-31T17:07:58.532Z,4.50
2023-01-31T17:10:34.943Z,3.65
2023-01-31T17:13:23.450Z,3.10
2023-01-31T17:15:51.399Z,3.70
2023-01-31T17:18:19.024Z,3.05
2023-01-31T17:20:49.188Z,2.90
2023-01-31T17:23:17.277Z,3.45
2023-01-31T17:25:45.493Z,3.42
2023-01-31T17:28:12.778Z,3.55
2023-01-31T17:30:44.795Z,3.50
2023-01-31T17:33:15.967Z,3.30
2023-01-31T17:35:49.825Z,2.80
2023-01-31T17:38:17.259Z,3.90
2023-01-31T17:40:45.995Z,3.72
2023-01-31T17:43:22.462Z,3.67
2023-01-31T17:45:49.787Z,3.92
2023-01-31T17:48:26.406Z,4.30
2023-01-31T17:50:54.634Z,4.40
2023-01-31T17:53:21.992Z,4.75
2023-01-31T17:55:49.410Z,4.85
2023-01-31T17:58:20.466Z,5.32
2023-01-31T18:00:47.810Z,3.78
2023-01-31T18:03:22.663Z,4.28
2023-01-31T18:05:50.991Z,4.85
2023-01-31T18:08:18.949Z,4.38
2023-01-31T18:10:46.756Z,5.55
2023-01-31T18:13:14.121Z,5.25
2023-01-31T18:15:41.413Z,4.43
2023-01-31T18:18:08.864Z,4.43
2023-01-31T18:20:47.503Z,4.43
2023-01-31T18:23:14.814Z,4.70
2023-01-31T18:25:44.064Z,4.63
2023-01-31T18:28:11.379Z,5.18
2023-01-31T18:30:38.745Z,4.22
2023-01-31T18:33:06.362Z,4.90
2023-01-31T18:35:33.781Z,4.47
2023-01-31T18:38:01.186Z,5.18
2023-01-31T18:40:28.465Z,4.80
2023-01-31T18:42:55.764Z,4.15
2023-01-31T18:45:23.400Z,4.10
2023-01-31T18:47:51.730Z,4.78
2023-01-31T18:50:19.097Z,5.07
2023-01-31T18:52:47.383Z,4.70
2023-01-31T18:55:14.739Z,5.80
2023-01-31T18:57:42.063Z,5.15
2023-01-31T19:00:10.936Z,4.30
2023-01-31T19:02:38.287Z,4.57
2023-01-31T19:05:06.353Z,4.40
